createdAt,value
2017-07-02T00:02:25.816Z,0
2017-07-02T00:03:06.277Z,0
2017-07-02T00:03:46.773Z,0
2017-07-02T00:04:27.349Z,0
2017-07-02T00:05:07.760Z,0
2017-07-02T00:05:48.196Z,0
2017-07-02T00:07:45.811Z,0
2017-07-02T00:08:26.252Z,0
2017-07-02T00:09:06.670Z,0
2017-07-02T00:09:47.195Z,0
2017-07-02T00:10:27.628Z,0
2017-07-02T00:11:08.108Z,0
2017-07-02T00:11:48.574Z,0
2017-07-02T00:12:29.024Z,0
2017-07-02T00:13:09.474Z,0
2017-07-02T00:13:49.954Z,0
2017-07-02T00:14:30.364Z,0
2017-07-02T00:15:10.816Z,0
2017-07-02T00:15:51.228Z,0
2017-07-02T00:16:31.669Z,0
2017-07-02T00:17:12.132Z,0
2017-07-02T00:17:52.611Z,0
2017-07-02T00:18:33.118Z,0
2017-07-02T00:19:13.572Z,0
2017-07-02T00:19:53.987Z,0
2017-07-02T00:20:34.425Z,0
2017-07-02T00:21:14.933Z,0
2017-07-02T00:21:55.468Z,0
2017-07-02T00:22:35.988Z,0
2017-07-02T00:23:16.449Z,0
2017-07-02T00:25:44.323Z,0
2017-07-02T00:26:24.745Z,0
2017-07-02T00:27:05.241Z,0
2017-07-02T00:27:45.727Z,0
2017-07-02T00:28:26.195Z,0
2017-07-02T00:29:06.658Z,0
2017-07-02T00:29:47.115Z,0
2017-07-02T00:32:05.063Z,0
2017-07-02T00:34:02.828Z,0
2017-07-02T00:34:43.191Z,0
2017-07-02T00:35:23.652Z,0
2017-07-02T00:36:04.127Z,0
2017-07-02T00:36:44.519Z,0
2017-07-02T00:39:02.386Z,0
2017-07-02T00:39:42.792Z,0
2017-07-02T00:40:23.350Z,0
2017-07-02T00:41:03.813Z,0
2017-07-02T00:41:44.259Z,0
2017-07-02T00:42:24.696Z,0
2017-07-02T00:43:05.318Z,0
2017-07-02T00:43:45.817Z,0
2017-07-02T00:44:26.219Z,0
2017-07-02T00:45:06.693Z,0
2017-07-02T00:45:47.148Z,0
2017-07-02T00:46:27.580Z,0
2017-07-02T00:47:08.049Z,0
2017-07-02T00:47:48.494Z,0
2017-07-02T00:48:28.963Z,0
2017-07-02T00:49:09.400Z,0
2017-07-02T00:49:49.878Z,0
2017-07-02T00:50:30.325Z,0
2017-07-02T00:53:03.377Z,0
2017-07-02T00:53:43.909Z,0
2017-07-02T00:54:24.382Z,0
2017-07-02T00:55:04.842Z,0
2017-07-02T00:55:45.328Z,0
2017-07-02T00:56:25.841Z,0
2017-07-02T00:57:06.308Z,0
2017-07-02T00:57:46.794Z,0
2017-07-02T00:59:44.560Z,0
2017-07-02T01:00:24.898Z,0
2017-07-02T01:02:22.534Z,0
2017-07-02T01:03:03.023Z,0
2017-07-02T01:03:43.560Z,0
2017-07-02T01:04:23.974Z,0
2017-07-02T01:05:04.441Z,0
2017-07-02T01:05:44.907Z,0
2017-07-02T01:06:25.348Z,0
2017-07-02T01:07:05.807Z,0
2017-07-02T01:07:46.366Z,0
2017-07-02T01:08:26.828Z,0
2017-07-02T01:09:07.285Z,0
2017-07-02T01:09:47.749Z,0
2017-07-02T01:10:28.190Z,0
2017-07-02T01:11:08.655Z,0
2017-07-02T01:11:49.158Z,0
2017-07-02T01:12:29.600Z,0
2017-07-02T01:13:10.128Z,0
2017-07-02T01:13:50.576Z,0
2017-07-02T01:16:23.613Z,0
2017-07-02T01:17:04.081Z,0
2017-07-02T01:17:44.651Z,0
2017-07-02T01:18:25.093Z,0
2017-07-02T01:19:05.524Z,0
2017-07-02T01:19:45.996Z,0
2017-07-02T01:20:26.444Z,0
2017-07-02T01:21:06.865Z,0
2017-07-02T01:21:47.374Z,0
2017-07-02T01:22:27.850Z,0
2017-07-02T01:23:08.339Z,0
2017-07-02T01:23:48.890Z,0
2017-07-02T01:26:16.816Z,0
2017-07-02T01:26:57.315Z,0
2017-07-02T01:27:37.799Z,0
2017-07-02T01:28:18.287Z,0
2017-07-02T01:28:58.766Z,0
2017-07-02T01:29:39.255Z,0
2017-07-02T01:30:19.737Z,0
2017-07-02T01:31:00.214Z,0
2017-07-02T01:31:40.694Z,0
2017-07-02T01:32:21.183Z,0
2017-07-02T01:33:01.722Z,0
2017-07-02T01:33:42.171Z,0
2017-07-02T01:34:22.648Z,0
2017-07-02T01:35:03.141Z,0
2017-07-02T01:35:43.626Z,0
2017-07-02T01:36:24.097Z,0
2017-07-02T01:37:04.553Z,0
2017-07-02T01:37:45.025Z,0
2017-07-02T01:40:18.114Z,0
2017-07-02T01:40:58.528Z,0
2017-07-02T01:41:38.999Z,0
2017-07-02T01:42:19.501Z,0
2017-07-02T01:42:59.938Z,0
2017-07-02T01:43:40.363Z,0
2017-07-02T01:44:20.834Z,0
2017-07-02T01:45:01.294Z,0
2017-07-02T01:45:41.740Z,0
2017-07-02T01:47:59.621Z,0
2017-07-02T01:48:40.077Z,0
2017-07-02T01:50:57.944Z,0
2017-07-02T01:51:38.428Z,0
2017-07-02T01:52:18.897Z,0
2017-07-02T01:52:59.352Z,0
2017-07-02T01:53:39.916Z,0
2017-07-02T01:54:20.350Z,0
2017-07-02T01:56:18.009Z,0
2017-07-02T01:56:58.465Z,0
2017-07-02T01:57:38.944Z,0
2017-07-02T01:59:36.610Z,0
2017-07-02T02:00:16.993Z,0
2017-07-02T02:00:57.450Z,0
2017-07-02T02:01:37.882Z,0
2017-07-02T02:02:18.354Z,0
2017-07-02T02:02:58.858Z,0
2017-07-02T02:03:39.290Z,0
2017-07-02T02:04:19.801Z,0
2017-07-02T02:05:00.304Z,0
2017-07-02T02:07:28.313Z,0
2017-07-02T02:08:08.828Z,0
2017-07-02T02:08:49.350Z,0
2017-07-02T02:09:29.771Z,0
2017-07-02T02:10:10.244Z,0
2017-07-02T02:10:50.760Z,0
2017-07-02T02:11:31.146Z,0
2017-07-02T02:12:11.598Z,0
2017-07-02T02:12:52.055Z,0
2017-07-02T02:15:04.912Z,0
2017-07-02T02:15:45.357Z,0
2017-07-02T02:16:25.823Z,0
2017-07-02T02:17:06.312Z,0
2017-07-02T02:17:46.752Z,0
2017-07-02T02:19:44.514Z,0
2017-07-02T02:20:24.984Z,0
2017-07-02T02:21:05.440Z,0
2017-07-02T02:21:45.888Z,0
2017-07-02T02:22:26.409Z,0
2017-07-02T02:23:06.815Z,0
2017-07-02T02:23:47.426Z,0
2017-07-02T02:25:45.111Z,0
2017-07-02T02:26:25.552Z,0
2017-07-02T02:27:06.024Z,0
2017-07-02T02:27:46.470Z,0
2017-07-02T02:28:26.928Z,0
2017-07-02T02:29:07.484Z,0
2017-07-02T02:29:47.948Z,0
2017-07-02T02:30:28.418Z,0
2017-07-02T02:31:08.858Z,0
2017-07-02T02:31:49.314Z,0
2017-07-02T02:32:29.758Z,0
2017-07-02T02:34:57.678Z,0
2017-07-02T02:35:38.133Z,0
2017-07-02T02:36:18.608Z,0
2017-07-02T02:36:59.025Z,0
2017-07-02T02:37:39.464Z,0
2017-07-02T02:38:19.911Z,0
2017-07-02T02:39:00.384Z,0
2017-07-02T02:39:40.848Z,0
2017-07-02T02:40:21.374Z,0
2017-07-02T02:41:01.851Z,0
2017-07-02T02:41:42.265Z,0
2017-07-02T02:42:22.742Z,0
2017-07-02T02:43:03.236Z,0
2017-07-02T02:43:43.704Z,0
2017-07-02T02:44:24.156Z,0
2017-07-02T02:45:04.604Z,0
2017-07-02T02:45:45.065Z,0
2017-07-02T02:48:02.950Z,0
2017-07-02T02:48:43.318Z,0
2017-07-02T02:49:23.748Z,0
2017-07-02T02:50:04.220Z,0
2017-07-02T02:50:44.676Z,0
2017-07-02T02:51:25.126Z,0
2017-07-02T02:52:05.680Z,0
2017-07-02T02:52:46.077Z,0
2017-07-02T02:53:26.502Z,0
2017-07-02T02:55:44.417Z,0
2017-07-02T02:56:24.973Z,4
2017-07-02T02:57:05.430Z,4
2017-07-02T02:57:45.888Z,4
2017-07-02T02:58:26.336Z,4
2017-07-02T02:59:06.778Z,4
2017-07-02T02:59:47.265Z,4
2017-07-02T03:00:27.719Z,0
2017-07-02T03:01:08.124Z,0
2017-07-02T03:01:48.589Z,4
2017-07-02T03:02:29.033Z,4
2017-07-02T03:03:09.533Z,4
2017-07-02T03:03:49.988Z,4
2017-07-02T03:06:02.828Z,8
2017-07-02T03:06:43.414Z,4
2017-07-02T03:07:23.843Z,8
2017-07-02T03:08:04.288Z,8
2017-07-02T03:08:44.771Z,8
2017-07-02T03:09:25.202Z,8
2017-07-02T03:10:05.657Z,12
2017-07-02T03:10:46.115Z,12
2017-07-02T03:11:26.603Z,16
2017-07-02T03:12:07.038Z,16
2017-07-02T03:12:47.526Z,16
2017-07-02T03:13:27.973Z,20
2017-07-02T03:14:08.419Z,20
2017-07-02T03:14:48.819Z,24
2017-07-02T03:15:29.275Z,24
2017-07-02T03:16:09.711Z,28
2017-07-02T03:16:50.171Z,32
2017-07-02T03:17:30.603Z,32
2017-07-02T03:18:11.117Z,32
2017-07-02T03:18:51.710Z,32
2017-07-02T03:19:32.195Z,36
2017-07-02T03:20:12.636Z,36
2017-07-02T03:20:53.132Z,44
2017-07-02T03:21:33.590Z,52
2017-07-02T03:22:14.066Z,56
2017-07-02T03:22:54.501Z,56
2017-07-02T03:23:34.980Z,60
2017-07-02T03:25:47.685Z,80
2017-07-02T03:26:28.149Z,92
2017-07-02T03:27:08.619Z,100
2017-07-02T03:27:49.065Z,112
2017-07-02T03:28:29.555Z,116
2017-07-02T03:29:09.962Z,128
2017-07-02T03:29:50.506Z,132
2017-07-02T03:30:30.898Z,140
2017-07-02T03:31:11.338Z,144
2017-07-02T03:31:51.791Z,144
2017-07-02T03:32:32.378Z,140
2017-07-02T03:33:12.846Z,136
2017-07-02T03:33:53.218Z,140
2017-07-02T03:34:33.670Z,144
2017-07-02T03:35:14.131Z,156
2017-07-02T03:35:54.577Z,164
2017-07-02T03:36:35.037Z,176
2017-07-02T03:37:15.496Z,180
2017-07-02T03:37:55.974Z,200
2017-07-02T03:38:36.401Z,216
2017-07-02T03:39:16.863Z,240
2017-07-02T03:39:57.306Z,260
2017-07-02T03:40:37.747Z,280
2017-07-02T03:41:18.222Z,300
2017-07-02T03:41:58.677Z,308
2017-07-02T03:42:39.260Z,324
2017-07-02T03:43:19.690Z,336
2017-07-02T03:44:00.164Z,340
2017-07-02T03:44:40.603Z,348
2017-07-02T03:45:21.058Z,340
2017-07-02T03:46:01.538Z,336
2017-07-02T03:46:42.007Z,332
2017-07-02T03:47:22.513Z,336
2017-07-02T03:48:03.114Z,340
2017-07-02T03:48:43.669Z,336
2017-07-02T03:49:24.121Z,336
2017-07-02T03:50:04.551Z,336
2017-07-02T03:50:45.010Z,336
2017-07-02T03:51:25.407Z,344
2017-07-02T03:52:05.848Z,352
2017-07-02T03:52:46.341Z,372
2017-07-02T03:53:26.796Z,388
2017-07-02T03:54:07.244Z,396
2017-07-02T03:54:47.670Z,424
2017-07-02T03:55:28.131Z,464
2017-07-02T03:57:46.105Z,628
2017-07-02T03:58:26.567Z,652
2017-07-02T03:59:07.048Z,652
2017-07-02T03:59:47.580Z,640
2017-07-02T04:00:28.012Z,664
2017-07-02T04:01:08.496Z,692
2017-07-02T04:01:48.998Z,708
2017-07-02T04:02:29.455Z,724
2017-07-02T04:03:09.923Z,732
2017-07-02T04:03:50.381Z,728
2017-07-02T04:04:30.823Z,696
2017-07-02T04:05:11.286Z,692
2017-07-02T04:07:29.109Z,708
2017-07-02T04:08:09.621Z,732
2017-07-02T04:08:50.069Z,732
2017-07-02T04:09:30.515Z,744
2017-07-02T04:10:10.987Z,780
2017-07-02T04:10:51.491Z,780
2017-07-02T04:11:31.981Z,776
2017-07-02T04:12:12.415Z,808
2017-07-02T04:12:52.831Z,904
2017-07-02T04:13:33.384Z,996
2017-07-02T04:14:13.779Z,1024
2017-07-02T04:14:54.261Z,1100
2017-07-02T04:15:34.708Z,1188
2017-07-02T04:16:15.113Z,1152
2017-07-02T04:16:55.629Z,1136
2017-07-02T04:17:36.105Z,1184
2017-07-02T04:18:16.541Z,1212
2017-07-02T04:18:56.982Z,1244
2017-07-02T04:20:54.602Z,1296
2017-07-02T04:21:35.040Z,1372
2017-07-02T04:22:15.499Z,1400
2017-07-02T04:22:55.882Z,1484
2017-07-02T04:23:36.353Z,1520
2017-07-02T04:24:16.788Z,1552
2017-07-02T04:24:57.260Z,1496
2017-07-02T04:25:37.704Z,1496
2017-07-02T04:26:18.164Z,1488
2017-07-02T04:26:58.576Z,1504
2017-07-02T04:27:39.133Z,1520
2017-07-02T04:28:19.607Z,1580
2017-07-02T04:29:00.168Z,1580
2017-07-02T04:29:40.658Z,1596
2017-07-02T04:30:21.118Z,1624
2017-07-02T04:31:01.588Z,1660
2017-07-02T04:31:42.022Z,1780
2017-07-02T04:32:22.499Z,1888
2017-07-02T04:33:02.924Z,1936
2017-07-02T04:33:43.343Z,1992
2017-07-02T04:34:23.771Z,2108
2017-07-02T04:36:21.540Z,2184
2017-07-02T04:37:02.009Z,2188
2017-07-02T04:37:42.471Z,2104
2017-07-02T04:38:22.958Z,2056
2017-07-02T04:39:03.474Z,2012
2017-07-02T04:41:16.153Z,2112
2017-07-02T04:41:56.657Z,2156
2017-07-02T04:42:37.053Z,2188
2017-07-02T04:45:05.018Z,2100
2017-07-02T04:45:45.503Z,2120
2017-07-02T04:46:25.944Z,2180
2017-07-02T04:47:06.399Z,2228
2017-07-02T04:47:46.850Z,2332
2017-07-02T04:48:27.261Z,2524
2017-07-02T04:49:07.819Z,2672
2017-07-02T04:49:48.260Z,2792
2017-07-02T04:50:28.732Z,2920
2017-07-02T04:51:09.202Z,3020
2017-07-02T04:51:49.657Z,3112
2017-07-02T04:52:30.107Z,3068
2017-07-02T04:53:10.568Z,3136
2017-07-02T04:53:51.026Z,3264
2017-07-02T04:54:31.489Z,3396
2017-07-02T04:55:11.916Z,3400
2017-07-02T04:55:52.385Z,3432
2017-07-02T04:56:32.824Z,3380
2017-07-02T04:57:13.297Z,3384
2017-07-02T04:57:53.758Z,3356
2017-07-02T04:58:34.220Z,3236
2017-07-02T05:01:02.129Z,3120
2017-07-02T05:01:42.590Z,2932
2017-07-02T05:02:23.049Z,2808
2017-07-02T05:03:03.495Z,2896
2017-07-02T05:03:43.931Z,3012
2017-07-02T05:04:24.403Z,3052
2017-07-02T05:05:04.873Z,2992
2017-07-02T05:05:45.320Z,2896
2017-07-02T05:06:25.850Z,2724
2017-07-02T05:07:06.335Z,2644
2017-07-02T05:07:46.774Z,2636
2017-07-02T05:08:27.264Z,2612
2017-07-02T05:09:07.787Z,2672
2017-07-02T05:09:48.369Z,2696
2017-07-02T05:10:29.054Z,2696
2017-07-02T05:11:09.310Z,2724
2017-07-02T05:11:49.855Z,2716
2017-07-02T05:12:30.299Z,2792
2017-07-02T05:13:10.763Z,2800
2017-07-02T05:13:51.261Z,2760
2017-07-02T05:16:09.329Z,2680
2017-07-02T05:16:49.573Z,2712
2017-07-02T05:17:30.025Z,2756
2017-07-02T05:18:10.478Z,2760
2017-07-02T05:18:50.930Z,2800
2017-07-02T05:19:31.385Z,2816
2017-07-02T05:20:11.879Z,2692
2017-07-02T05:20:52.291Z,2748
2017-07-02T05:21:32.732Z,2916
2017-07-02T05:22:13.170Z,2992
2017-07-02T05:22:53.606Z,2948
2017-07-02T05:23:34.161Z,3080
2017-07-02T05:24:14.581Z,2992
2017-07-02T05:24:55.019Z,3008
2017-07-02T05:25:35.482Z,2996
2017-07-02T05:26:15.957Z,2960
2017-07-02T05:26:56.403Z,3024
2017-07-02T05:27:36.863Z,3012
2017-07-02T05:28:17.337Z,2952
2017-07-02T05:30:14.984Z,2936
2017-07-02T05:30:55.470Z,2936
2017-07-02T05:31:35.927Z,3016
2017-07-02T05:32:16.404Z,3132
2017-07-02T05:32:56.858Z,3168
2017-07-02T05:33:37.314Z,3348
2017-07-02T05:34:17.793Z,3556
2017-07-02T05:34:58.240Z,3596
2017-07-02T05:35:38.750Z,3636
2017-07-02T05:36:19.167Z,3780
2017-07-02T05:36:59.621Z,4124
2017-07-02T05:37:40.149Z,4496
2017-07-02T05:38:20.536Z,4676
2017-07-02T05:39:01.118Z,5104
2017-07-02T05:39:41.628Z,5704
2017-07-02T05:40:22.132Z,5992
2017-07-02T05:41:02.539Z,6452
2017-07-02T05:41:42.994Z,7052
2017-07-02T05:42:23.437Z,7348
2017-07-02T05:43:03.876Z,7796
2017-07-02T05:43:44.430Z,7888
2017-07-02T05:44:24.978Z,7896
2017-07-02T05:45:05.409Z,7980
2017-07-02T05:45:45.855Z,7612
2017-07-02T05:46:26.300Z,7276
2017-07-02T05:47:06.761Z,7120
2017-07-02T05:47:47.225Z,7396
2017-07-02T05:48:27.673Z,8640
2017-07-02T05:49:08.140Z,7808
2017-07-02T05:49:48.614Z,7476
2017-07-02T05:50:29.213Z,7412
2017-07-02T05:51:09.719Z,7624
2017-07-02T05:51:50.179Z,8016
2017-07-02T05:52:30.654Z,7912
2017-07-02T05:53:11.105Z,7652
2017-07-02T05:53:51.570Z,7396
2017-07-02T05:56:24.618Z,6132
2017-07-02T05:57:05.085Z,6196
2017-07-02T05:57:45.585Z,6392
2017-07-02T05:58:26.058Z,6688
2017-07-02T06:00:54.101Z,7712
2017-07-02T06:01:34.534Z,8068
2017-07-02T06:02:15.017Z,7636
2017-07-02T06:02:55.518Z,7352
2017-07-02T06:03:35.926Z,7204
2017-07-02T06:04:16.394Z,7448
2017-07-02T06:04:56.810Z,7956
2017-07-02T06:05:37.262Z,7808
2017-07-02T06:06:17.728Z,7628
2017-07-02T06:06:58.176Z,7932
2017-07-02T06:07:38.632Z,7836
2017-07-02T06:10:11.679Z,7736
2017-07-02T06:10:52.114Z,7688
2017-07-02T06:11:32.598Z,7432
2017-07-02T06:12:13.052Z,7564
2017-07-02T06:12:53.528Z,8156
2017-07-02T06:13:33.949Z,8192
2017-07-02T06:14:14.353Z,7780
2017-07-02T06:14:54.811Z,8120
2017-07-02T06:15:35.274Z,7876
2017-07-02T06:17:53.100Z,8284
2017-07-02T06:18:33.558Z,7952
2017-07-02T06:19:14.053Z,7392
2017-07-02T06:19:54.517Z,6996
2017-07-02T06:20:35.012Z,7420
2017-07-02T06:21:15.501Z,7848
2017-07-02T06:21:56.083Z,8168
2017-07-02T06:22:36.545Z,8320
2017-07-02T06:23:17.001Z,8312
2017-07-02T06:23:57.526Z,8088
2017-07-02T06:24:38.000Z,8128
2017-07-02T06:25:18.441Z,8300
2017-07-02T06:25:58.937Z,8048
2017-07-02T06:26:39.407Z,7920
2017-07-02T06:27:19.911Z,7628
2017-07-02T06:28:00.421Z,7420
2017-07-02T06:28:40.869Z,7084
2017-07-02T06:29:21.320Z,6844
2017-07-02T06:30:01.977Z,6588
2017-07-02T06:30:42.389Z,6580
2017-07-02T06:32:40.075Z,7292
2017-07-02T06:33:20.572Z,7544
2017-07-02T06:34:01.011Z,7740
2017-07-02T06:34:41.483Z,7928
2017-07-02T06:35:21.960Z,7856
2017-07-02T06:36:02.409Z,7676
2017-07-02T06:36:42.906Z,7736
2017-07-02T06:37:23.487Z,7432
2017-07-02T06:38:03.984Z,7880
2017-07-02T06:38:44.439Z,7616
2017-07-02T06:39:24.897Z,7456
2017-07-02T06:40:05.349Z,6876
2017-07-02T06:40:45.793Z,6256
2017-07-02T06:41:26.245Z,5932
2017-07-02T06:42:06.704Z,6104
2017-07-02T06:42:47.194Z,6276
2017-07-02T06:43:27.658Z,6352
2017-07-02T06:44:08.122Z,6112
2017-07-02T06:44:48.558Z,5900
2017-07-02T06:45:28.995Z,5460
2017-07-02T06:46:09.407Z,5004
2017-07-02T06:46:49.847Z,4468
2017-07-02T06:47:30.512Z,4568
2017-07-02T06:48:10.945Z,5052
2017-07-02T06:48:51.400Z,5112
2017-07-02T06:49:31.863Z,5516
2017-07-02T06:50:12.308Z,5916
2017-07-02T06:50:52.747Z,5676
2017-07-02T06:51:33.182Z,5324
2017-07-02T06:52:13.711Z,4912
2017-07-02T06:52:54.164Z,5044
2017-07-02T06:53:34.618Z,4780
2017-07-02T06:54:15.071Z,4800
2017-07-02T06:54:55.636Z,5772
2017-07-02T06:55:36.074Z,6436
2017-07-02T06:56:16.546Z,6204
2017-07-02T06:56:56.984Z,5876
2017-07-02T06:57:37.457Z,6076
2017-07-02T06:58:17.952Z,5276
2017-07-02T07:00:15.619Z,4960
2017-07-02T07:00:56.103Z,4884
2017-07-02T07:01:36.590Z,4480
2017-07-02T07:02:17.068Z,4972
2017-07-02T07:02:57.555Z,5016
2017-07-02T07:03:38.051Z,4888
2017-07-02T07:04:18.529Z,4688
2017-07-02T07:04:59.033Z,4500
2017-07-02T07:05:39.510Z,4608
2017-07-02T07:06:20.012Z,4724
2017-07-02T07:07:00.491Z,4500
2017-07-02T07:07:40.968Z,3996
2017-07-02T07:08:21.464Z,3696
2017-07-02T07:09:01.960Z,3736
2017-07-02T07:09:42.460Z,3764
2017-07-02T07:10:22.958Z,3852
2017-07-02T07:11:03.423Z,3688
2017-07-02T07:11:43.922Z,3936
2017-07-02T07:12:24.404Z,4008
2017-07-02T07:13:04.892Z,3884
2017-07-02T07:13:45.403Z,3940
2017-07-02T07:14:25.880Z,4092
2017-07-02T07:15:06.374Z,4440
2017-07-02T07:15:46.881Z,4924
2017-07-02T07:16:27.368Z,5296
2017-07-02T07:17:07.860Z,5096
2017-07-02T07:17:48.337Z,4708
2017-07-02T07:18:28.817Z,4260
2017-07-02T07:19:09.315Z,3956
2017-07-02T07:19:49.814Z,4240
2017-07-02T07:20:30.294Z,4968
2017-07-02T07:21:10.773Z,5884
2017-07-02T07:21:51.268Z,6552
2017-07-02T07:22:31.754Z,6868
2017-07-02T07:23:12.250Z,6564
2017-07-02T07:23:52.731Z,5624
2017-07-02T07:24:33.231Z,5364
2017-07-02T07:25:13.721Z,5604
2017-07-02T07:25:54.213Z,5960
2017-07-02T07:26:34.723Z,6232
2017-07-02T07:27:15.208Z,6320
2017-07-02T07:27:55.704Z,6328
2017-07-02T07:28:36.197Z,6364
2017-07-02T07:29:16.696Z,6488
2017-07-02T07:29:57.187Z,6612
2017-07-02T07:30:37.682Z,6604
2017-07-02T07:31:18.172Z,6580
2017-07-02T07:31:58.673Z,6504
2017-07-02T07:32:39.156Z,6360
2017-07-02T07:33:19.653Z,6108
2017-07-02T07:34:00.118Z,5976
2017-07-02T07:34:40.576Z,5920
2017-07-02T07:35:21.077Z,5944
2017-07-02T07:36:01.569Z,5884
2017-07-02T07:36:42.053Z,5844
2017-07-02T07:37:22.506Z,5880
2017-07-02T07:38:03.002Z,5960
2017-07-02T07:38:43.486Z,6004
2017-07-02T07:39:23.980Z,6028
2017-07-02T07:40:04.462Z,5956
2017-07-02T07:42:32.413Z,6020
2017-07-02T07:43:12.868Z,6292
2017-07-02T07:43:53.346Z,6536
2017-07-02T07:44:33.775Z,6700
2017-07-02T07:45:14.210Z,6596
2017-07-02T07:45:54.653Z,6532
2017-07-02T07:46:35.130Z,6432
2017-07-02T07:47:15.597Z,6356
2017-07-02T07:47:56.059Z,6500
2017-07-02T07:48:36.705Z,6344
2017-07-02T07:49:17.181Z,6100
2017-07-02T07:49:57.638Z,5848
2017-07-02T07:50:38.162Z,5656
2017-07-02T07:51:18.587Z,5540
2017-07-02T07:53:31.323Z,4960
2017-07-02T07:54:11.880Z,4964
2017-07-02T07:54:52.293Z,4820
2017-07-02T07:55:32.774Z,4720
2017-07-02T07:56:13.229Z,4736
2017-07-02T07:56:53.689Z,4748
2017-07-02T07:57:34.151Z,4752
2017-07-02T07:58:14.598Z,4828
2017-07-02T07:58:55.196Z,4944
2017-07-02T08:01:07.980Z,5352
2017-07-02T08:01:48.453Z,5484
2017-07-02T08:02:28.907Z,5636
2017-07-02T08:03:09.376Z,5820
2017-07-02T08:03:49.849Z,5964
2017-07-02T08:04:30.303Z,6072
2017-07-02T08:05:10.781Z,6220
2017-07-02T08:05:51.252Z,6472
2017-07-02T08:06:31.712Z,6732
2017-07-02T08:07:12.168Z,6880
2017-07-02T08:07:52.764Z,7160
2017-07-02T08:08:33.217Z,7416
2017-07-02T08:09:13.620Z,7580
2017-07-02T08:09:54.082Z,7804
2017-07-02T08:10:34.529Z,7840
2017-07-02T08:11:14.969Z,7748
2017-07-02T08:11:55.443Z,7724
2017-07-02T08:12:35.915Z,7900
2017-07-02T08:13:16.376Z,7712
2017-07-02T08:13:56.887Z,7624
2017-07-02T08:14:37.428Z,7776
2017-07-02T08:15:17.910Z,8352
2017-07-02T08:15:58.404Z,8724
2017-07-02T08:16:38.923Z,8752
2017-07-02T08:17:19.280Z,9252
2017-07-02T08:17:59.867Z,9664
2017-07-02T08:18:40.322Z,9504
2017-07-02T08:19:20.810Z,9536
2017-07-02T08:20:01.245Z,9936
2017-07-02T08:20:41.698Z,9796
2017-07-02T08:21:22.162Z,10512
2017-07-02T08:23:40.089Z,14756
2017-07-02T08:24:20.622Z,15612
2017-07-02T08:26:18.287Z,17144
2017-07-02T08:26:58.735Z,16080
2017-07-02T08:27:39.195Z,15928
2017-07-02T08:28:19.791Z,15248
2017-07-02T08:29:00.194Z,14124
2017-07-02T08:29:40.640Z,13320
2017-07-02T08:30:21.137Z,12948
2017-07-02T08:31:01.519Z,11740
2017-07-02T08:31:41.979Z,10552
2017-07-02T08:32:22.396Z,9760
2017-07-02T08:33:02.919Z,9668
2017-07-02T08:33:43.346Z,9948
2017-07-02T08:34:23.875Z,9384
2017-07-02T08:35:04.360Z,9076
2017-07-02T08:35:44.885Z,10384
2017-07-02T08:36:25.346Z,12044
2017-07-02T08:37:05.789Z,12512
2017-07-02T08:37:46.231Z,11808
2017-07-02T08:38:26.693Z,11188
2017-07-02T08:39:07.101Z,10832
2017-07-02T08:39:47.554Z,9808
2017-07-02T08:40:28.012Z,9896
2017-07-02T08:41:08.480Z,9996
2017-07-02T08:41:48.937Z,10692
2017-07-02T08:42:29.400Z,10916
2017-07-02T08:43:09.852Z,10904
2017-07-02T08:43:50.366Z,10452
2017-07-02T08:44:30.921Z,10384
2017-07-02T08:47:03.971Z,10820
2017-07-02T08:47:44.449Z,11436
2017-07-02T08:48:24.892Z,11784
2017-07-02T08:49:05.354Z,11744
2017-07-02T08:49:45.823Z,11824
2017-07-02T08:50:26.358Z,12344
2017-07-02T08:51:06.831Z,13444
2017-07-02T08:51:47.322Z,14272
2017-07-02T08:52:27.808Z,15324
2017-07-02T08:53:08.299Z,16812
2017-07-02T08:53:48.862Z,18144
2017-07-02T08:54:29.327Z,19392
2017-07-02T08:55:09.804Z,19520
2017-07-02T08:55:50.240Z,19872
2017-07-02T08:56:30.676Z,19392
2017-07-02T08:57:11.132Z,27840
2017-07-02T08:57:51.566Z,21216
2017-07-02T08:58:32.060Z,26720
2017-07-02T09:01:05.380Z,20800
2017-07-02T09:01:45.857Z,54048
2017-07-02T09:02:26.325Z,45984
2017-07-02T09:03:06.760Z,24896
2017-07-02T09:03:47.216Z,24704
2017-07-02T09:04:27.676Z,22464
2017-07-02T09:05:08.156Z,23904
2017-07-02T09:07:41.296Z,23520
2017-07-02T09:08:21.764Z,21664
2017-07-02T09:09:02.209Z,18464
2017-07-02T09:09:42.664Z,18400
2017-07-02T09:10:23.104Z,15124
2017-07-02T09:11:03.547Z,13288
2017-07-02T09:11:43.994Z,13608
2017-07-02T09:12:24.467Z,12980
2017-07-02T09:13:04.943Z,12916
2017-07-02T09:13:45.388Z,12964
2017-07-02T09:14:25.861Z,13464
2017-07-02T09:15:06.314Z,13908
2017-07-02T09:15:46.795Z,16700
2017-07-02T09:16:27.232Z,20640
2017-07-02T09:17:07.690Z,23712
2017-07-02T09:17:48.153Z,24544
2017-07-02T09:18:28.613Z,20864
2017-07-02T09:19:09.155Z,19712
2017-07-02T09:19:49.606Z,18720
2017-07-02T09:20:30.089Z,19552
2017-07-02T09:21:10.545Z,20160
2017-07-02T09:21:51.000Z,21024
2017-07-02T09:22:31.448Z,23840
2017-07-02T09:23:11.899Z,27136
2017-07-02T09:23:52.363Z,32032
2017-07-02T09:24:32.824Z,44800
2017-07-02T09:25:13.283Z,40032
2017-07-02T09:27:41.193Z,45696
2017-07-02T09:28:21.711Z,42336
2017-07-02T09:29:02.238Z,51968
2017-07-02T09:29:42.655Z,54432
2017-07-02T09:30:23.179Z,29312
2017-07-02T09:31:03.607Z,26400
2017-07-02T09:31:44.108Z,27328
2017-07-02T09:32:24.534Z,31712
2017-07-02T09:34:52.504Z,25600
2017-07-02T09:35:32.983Z,34368
2017-07-02T09:36:13.424Z,26720
2017-07-02T09:36:53.904Z,30656
2017-07-02T09:37:34.360Z,34208
2017-07-02T09:38:14.795Z,34400
2017-07-02T09:38:55.250Z,42016
2017-07-02T09:39:35.697Z,44480
2017-07-02T09:40:16.161Z,39616
2017-07-02T09:40:56.618Z,38496
2017-07-02T09:41:37.068Z,35776
2017-07-02T09:42:17.511Z,31872
2017-07-02T09:42:57.981Z,44704
2017-07-02T09:43:38.571Z,41760
2017-07-02T09:44:19.038Z,40800
2017-07-02T09:44:59.477Z,39648
2017-07-02T09:45:39.937Z,37376
2017-07-02T09:46:20.388Z,40608
2017-07-02T09:47:00.845Z,45088
2017-07-02T09:47:41.302Z,41184
2017-07-02T09:50:09.244Z,38592
2017-07-02T09:50:49.701Z,41920
2017-07-02T09:51:30.201Z,37824
2017-07-02T09:52:10.664Z,36896
2017-07-02T09:52:51.152Z,34784
2017-07-02T09:53:31.631Z,32992
2017-07-02T09:54:12.041Z,33408
2017-07-02T09:54:52.490Z,32512
2017-07-02T09:55:32.930Z,32736
2017-07-02T09:56:13.376Z,30496
2017-07-02T09:56:53.862Z,30848
2017-07-02T09:57:34.282Z,31712
2017-07-02T09:58:14.735Z,32160
2017-07-02T09:58:55.267Z,32608
2017-07-02T09:59:35.714Z,31104
2017-07-02T10:00:16.173Z,29696
2017-07-02T10:02:49.220Z,35072
2017-07-02T10:03:29.667Z,36096
2017-07-02T10:04:10.132Z,39136
2017-07-02T10:04:50.615Z,37536
2017-07-02T10:05:31.154Z,36416
2017-07-02T10:07:28.825Z,36288
2017-07-02T10:08:09.279Z,38496
2017-07-02T10:08:49.765Z,38528
2017-07-02T10:09:30.257Z,35136
2017-07-02T10:10:10.848Z,34656
2017-07-02T10:10:51.345Z,35776
2017-07-02T10:11:31.773Z,34560
2017-07-02T10:12:12.236Z,30752
2017-07-02T10:12:52.685Z,28800
2017-07-02T10:15:05.416Z,20544
2017-07-02T10:15:45.971Z,21824
2017-07-02T10:16:26.361Z,22784
2017-07-02T10:17:06.789Z,23520
2017-07-02T10:17:47.228Z,28800
2017-07-02T10:18:27.760Z,29024
2017-07-02T10:19:08.215Z,27488
2017-07-02T10:19:48.662Z,30176
2017-07-02T10:20:29.119Z,29920
2017-07-02T10:21:09.697Z,28960
2017-07-02T10:21:50.152Z,26432
2017-07-02T10:22:30.661Z,28192
2017-07-02T10:23:11.111Z,28640
2017-07-02T10:23:51.575Z,27360
2017-07-02T10:24:32.012Z,30144
2017-07-02T10:25:12.507Z,28928
2017-07-02T10:25:52.993Z,26112
2017-07-02T10:26:33.458Z,19904
2017-07-02T10:27:14.002Z,17368
2017-07-02T10:27:54.443Z,16068
2017-07-02T10:28:34.902Z,15292
2017-07-02T10:29:15.365Z,14780
2017-07-02T10:29:55.804Z,13628
2017-07-02T10:30:36.271Z,11524
2017-07-02T10:31:16.742Z,8992
2017-07-02T10:31:57.230Z,8332
2017-07-02T10:34:15.142Z,13852
2017-07-02T10:34:55.634Z,17728
2017-07-02T10:35:36.077Z,17952
2017-07-02T10:36:16.561Z,16080
2017-07-02T10:36:57.028Z,17664
2017-07-02T10:37:37.515Z,20384
2017-07-02T10:38:17.932Z,25632
2017-07-02T10:38:58.393Z,18912
2017-07-02T10:39:38.827Z,15712
2017-07-02T10:40:19.286Z,14940
2017-07-02T10:40:59.753Z,16564